sensor_id;sensor_type;location;lat;lon;timestamp;temperature;humidity
20977;DHT22;10647;51.016;3.720;2023-03-31T00:01:42;13.70;99.90
20977;DHT22;10647;51.016;3.720;2023-03-31T00:04:10;13.70;99.90
20977;DHT22;10647;51.016;3.720;2023-03-31T00:09:28;13.70;99.90
20977;DHT22;10647;51.016;3.720;2023-03-31T00:12:00;13.60;99.90
20977;DHT22;10647;51.016;3.720;2023-03-31T00:14:29;13.60;99.90
20977;DHT22;10647;51.016;3.720;2023-03-31T00:16:56;13.50;99.90
20977;DHT22;10647;51.016;3.720;2023-03-31T00:19:24;13.50;99.90
20977;DHT22;10647;51.016;3.720;2023-03-31T00:21:53;13.50;99.90
20977;DHT22;10647;51.016;3.720;2023-03-31T00:24:21;13.40;99.90
20977;DHT22;10647;51.016;3.720;2023-03-31T00:26:48;13.30;99.90
20977;DHT22;10647;51.016;3.720;2023-03-31T00:29:25;13.40;99.90
20977;DHT22;10647;51.016;3.720;2023-03-31T00:31:56;13.30;99.90
20977;DHT22;10647;51.016;3.720;2023-03-31T00:34:25;13.20;99.90
20977;DHT22;10647;51.016;3.720;2023-03-31T00:36:53;13.10;99.90
20977;DHT22;10647;51.016;3.720;2023-03-31T00:39:23;13.10;99.90
20977;DHT22;10647;51.016;3.720;2023-03-31T00:41:51;13.10;99.90
20977;DHT22;10647;51.016;3.720;2023-03-31T00:44:20;13.10;99.90
20977;DHT22;10647;51.016;3.720;2023-03-31T00:52:39;13.00;99.90
20977;DHT22;10647;51.016;3.720;2023-03-31T00:55:13;13.00;99.90
20977;DHT22;10647;51.016;3.720;2023-03-31T00:57:44;12.90;99.90
20977;DHT22;10647;51.016;3.720;2023-03-31T01:00:14;13.00;99.90
20977;DHT22;10647;51.016;3.720;2023-03-31T01:02:49;13.10;99.90
20977;DHT22;10647;51.016;3.720;2023-03-31T01:05:28;13.10;99.90
20977;DHT22;10647;51.016;3.720;2023-03-31T01:07:55;13.10;99.90
20977;DHT22;10647;51.016;3.720;2023-03-31T01:10:26;13.10;99.90
20977;DHT22;10647;51.016;3.720;2023-03-31T01:12:56;13.20;99.90
20977;DHT22;10647;51.016;3.720;2023-03-31T01:15:24;13.20;99.90
20977;DHT22;10647;51.016;3.720;2023-03-31T01:17:52;13.20;99.90
20977;DHT22;10647;51.016;3.720;2023-03-31T01:26:30;13.20;99.90
20977;DHT22;10647;51.016;3.720;2023-03-31T02:00:24;13.00;99.90
20977;DHT22;10647;51.016;3.720;2023-03-31T02:03:15;13.00;99.90
20977;DHT22;10647;51.016;3.720;2023-03-31T02:05:50;13.00;99.90
20977;DHT22;10647;51.016;3.720;2023-03-31T02:08:22;13.00;99.90
20977;DHT22;10647;51.016;3.720;2023-03-31T02:10:51;12.90;99.90
20977;DHT22;10647;51.016;3.720;2023-03-31T02:13:21;12.90;99.90
20977;DHT22;10647;51.016;3.720;2023-03-31T02:15:52;12.80;99.90
20977;DHT22;10647;51.016;3.720;2023-03-31T02:21:15;12.90;99.90
20977;DHT22;10647;51.016;3.720;2023-03-31T02:23:46;12.90;99.90
20977;DHT22;10647;51.016;3.720;2023-03-31T02:26:19;12.80;99.90
20977;DHT22;10647;51.016;3.720;2023-03-31T02:28:50;12.80;99.90
20977;DHT22;10647;51.016;3.720;2023-03-31T02:31:42;12.80;99.90
20977;DHT22;10647;51.016;3.720;2023-03-31T02:34:28;12.70;99.90
20977;DHT22;10647;51.016;3.720;2023-03-31T02:36:56;12.70;99.90
20977;DHT22;10647;51.016;3.720;2023-03-31T02:39:26;12.70;99.90
20977;DHT22;10647;51.016;3.720;2023-03-31T02:41:54;12.70;99.90
20977;DHT22;10647;51.016;3.720;2023-03-31T02:44:22;12.70;99.90
20977;DHT22;10647;51.016;3.720;2023-03-31T02:46:51;12.80;99.90
20977;DHT22;10647;51.016;3.720;2023-03-31T02:55:25;12.70;99.90
20977;DHT22;10647;51.016;3.720;2023-03-31T03:07:22;12.40;99.90
20977;DHT22;10647;51.016;3.720;2023-03-31T03:13:04;12.40;99.90
20977;DHT22;10647;51.016;3.720;2023-03-31T03:15:37;12.30;99.90
20977;DHT22;10647;51.016;3.720;2023-03-31T03:18:27;12.30;99.90
20977;DHT22;10647;51.016;3.720;2023-03-31T03:20:58;12.30;99.90
20977;DHT22;10647;51.016;3.720;2023-03-31T03:23:27;12.20;99.90
20977;DHT22;10647;51.016;3.720;2023-03-31T03:25:57;12.30;99.90
20977;DHT22;10647;51.016;3.720;2023-03-31T03:28:28;12.30;99.90
20977;DHT22;10647;51.016;3.720;2023-03-31T03:31:01;12.30;99.90
20977;DHT22;10647;51.016;3.720;2023-03-31T03:33:30;12.30;99.90
20977;DHT22;10647;51.016;3.720;2023-03-31T03:36:07;12.20;99.90
20977;DHT22;10647;51.016;3.720;2023-03-31T03:38:42;12.30;99.90
20977;DHT22;10647;51.016;3.720;2023-03-31T03:41:10;12.30;99.90
20977;DHT22;10647;51.016;3.720;2023-03-31T03:43:40;12.20;99.90
20977;DHT22;10647;51.016;3.720;2023-03-31T03:46:07;12.20;99.90
20977;DHT22;10647;51.016;3.720;2023-03-31T03:48:38;12.20;99.90
20977;DHT22;10647;51.016;3.720;2023-03-31T03:51:05;12.10;99.90
20977;DHT22;10647;51.016;3.720;2023-03-31T03:53:35;12.10;99.90
20977;DHT22;10647;51.016;3.720;2023-03-31T03:56:08;12.10;99.90
20977;DHT22;10647;51.016;3.720;2023-03-31T03:58:38;12.10;99.90
20977;DHT22;10647;51.016;3.720;2023-03-31T04:01:07;12.10;99.90
20977;DHT22;10647;51.016;3.720;2023-03-31T04:03:35;12.10;99.90
20977;DHT22;10647;51.016;3.720;2023-03-31T04:06:03;12.00;99.90
20977;DHT22;10647;51.016;3.720;2023-03-31T04:08:33;11.90;99.90
20977;DHT22;10647;51.016;3.720;2023-03-31T04:11:00;11.90;99.90
20977;DHT22;10647;51.016;3.720;2023-03-31T04:13:28;11.90;99.90
20977;DHT22;10647;51.016;3.720;2023-03-31T04:15:56;11.90;99.90
20977;DHT22;10647;51.016;3.720;2023-03-31T04:18:23;11.90;99.90
20977;DHT22;10647;51.016;3.720;2023-03-31T04:20:52;11.90;99.90
20977;DHT22;10647;51.016;3.720;2023-03-31T04:23:33;11.80;99.90
20977;DHT22;10647;51.016;3.720;2023-03-31T04:26:02;11.90;99.90
20977;DHT22;10647;51.016;3.720;2023-03-31T04:28:35;11.90;99.90
20977;DHT22;10647;51.016;3.720;2023-03-31T04:31:03;11.90;99.90
20977;DHT22;10647;51.016;3.720;2023-03-31T04:33:35;11.90;99.90
20977;DHT22;10647;51.016;3.720;2023-03-31T04:36:05;11.90;99.90
20977;DHT22;10647;51.016;3.720;2023-03-31T04:38:35;11.80;99.90
20977;DHT22;10647;51.016;3.720;2023-03-31T04:41:03;11.90;99.90
20977;DHT22;10647;51.016;3.720;2023-03-31T04:43:30;11.90;99.90
20977;DHT22;10647;51.016;3.720;2023-03-31T04:45:58;12.00;99.90
20977;DHT22;10647;51.016;3.720;2023-03-31T04:48:25;11.90;99.90
20977;DHT22;10647;51.016;3.720;2023-03-31T04:50:53;11.90;99.90
20977;DHT22;10647;51.016;3.720;2023-03-31T04:53:20;11.90;99.90
20977;DHT22;10647;51.016;3.720;2023-03-31T04:55:49;11.90;99.90
20977;DHT22;10647;51.016;3.720;2023-03-31T04:58:16;11.90;99.90
20977;DHT22;10647;51.016;3.720;2023-03-31T05:00:45;11.90;99.90
20977;DHT22;10647;51.016;3.720;2023-03-31T05:03:15;12.00;99.90
20977;DHT22;10647;51.016;3.720;2023-03-31T05:05:43;12.00;99.90
20977;DHT22;10647;51.016;3.720;2023-03-31T05:08:11;12.00;99.90
20977;DHT22;10647;51.016;3.720;2023-03-31T05:10:42;12.00;99.90
20977;DHT22;10647;51.016;3.720;2023-03-31T05:13:11;12.10;99.90
20977;DHT22;10647;51.016;3.720;2023-03-31T05:15:39;12.10;99.90
20977;DHT22;10647;51.016;3.720;2023-03-31T05:18:07;12.00;99.90
20977;DHT22;10647;51.016;3.720;2023-03-31T05:20:34;12.10;99.90
20977;DHT22;10647;51.016;3.720;2023-03-31T05:23:03;12.10;99.90
20977;DHT22;10647;51.016;3.720;2023-03-31T05:25:33;12.20;99.90
20977;DHT22;10647;51.016;3.720;2023-03-31T05:28:02;12.20;99.90
20977;DHT22;10647;51.016;3.720;2023-03-31T05:30:31;12.20;99.90
20977;DHT22;10647;51.016;3.720;2023-03-31T05:33:00;12.20;99.90
20977;DHT22;10647;51.016;3.720;2023-03-31T05:35:41;12.20;99.90
20977;DHT22;10647;51.016;3.720;2023-03-31T05:38:11;12.20;99.90
20977;DHT22;10647;51.016;3.720;2023-03-31T05:40:41;12.20;99.90
20977;DHT22;10647;51.016;3.720;2023-03-31T05:43:08;12.20;99.90
20977;DHT22;10647;51.016;3.720;2023-03-31T05:45:36;12.30;99.90
20977;DHT22;10647;51.016;3.720;2023-03-31T05:48:04;12.40;99.90
20977;DHT22;10647;51.016;3.720;2023-03-31T05:50:32;12.40;99.90
20977;DHT22;10647;51.016;3.720;2023-03-31T05:53:00;12.40;99.90
20977;DHT22;10647;51.016;3.720;2023-03-31T05:55:27;12.50;99.90
20977;DHT22;10647;51.016;3.720;2023-03-31T05:57:55;12.50;99.90
20977;DHT22;10647;51.016;3.720;2023-03-31T06:00:22;12.60;99.90
20977;DHT22;10647;51.016;3.720;2023-03-31T06:02:50;12.60;99.90
20977;DHT22;10647;51.016;3.720;2023-03-31T06:05:17;12.60;99.90
20977;DHT22;10647;51.016;3.720;2023-03-31T06:07:45;12.60;99.90
20977;DHT22;10647;51.016;3.720;2023-03-31T06:10:19;12.70;99.90
20977;DHT22;10647;51.016;3.720;2023-03-31T06:12:46;12.70;99.90
20977;DHT22;10647;51.016;3.720;2023-03-31T06:15:17;12.70;99.90
20977;DHT22;10647;51.016;3.720;2023-03-31T06:17:44;12.80;99.90
20977;DHT22;10647;51.016;3.720;2023-03-31T06:20:14;12.90;99.90
20977;DHT22;10647;51.016;3.720;2023-03-31T06:22:42;13.00;99.90
20977;DHT22;10647;51.016;3.720;2023-03-31T06:25:10;13.00;99.90
20977;DHT22;10647;51.016;3.720;2023-03-31T06:27:38;12.90;99.90
20977;DHT22;10647;51.016;3.720;2023-03-31T06:30:12;13.00;99.90
20977;DHT22;10647;51.016;3.720;2023-03-31T06:32:51;13.10;99.90
20977;DHT22;10647;51.016;3.720;2023-03-31T06:35:24;13.10;99.90
20977;DHT22;10647;51.016;3.720;2023-03-31T06:37:54;13.10;99.90
20977;DHT22;10647;51.016;3.720;2023-03-31T06:40:22;13.10;99.90
20977;DHT22;10647;51.016;3.720;2023-03-31T06:42:52;13.20;99.90
20977;DHT22;10647;51.016;3.720;2023-03-31T06:45:20;13.20;99.90
20977;DHT22;10647;51.016;3.720;2023-03-31T06:47:48;13.10;99.90
20977;DHT22;10647;51.016;3.720;2023-03-31T06:50:16;13.10;99.90
20977;DHT22;10647;51.016;3.720;2023-03-31T06:52:43;13.10;99.90
20977;DHT22;10647;51.016;3.720;2023-03-31T06:55:11;13.20;99.90
20977;DHT22;10647;51.016;3.720;2023-03-31T06:57:40;13.40;99.90
20977;DHT22;10647;51.016;3.720;2023-03-31T07:00:14;13.50;99.90
20977;DHT22;10647;51.016;3.720;2023-03-31T07:02:42;13.70;99.90
20977;DHT22;10647;51.016;3.720;2023-03-31T07:05:12;13.70;99.90
20977;DHT22;10647;51.016;3.720;2023-03-31T07:07:40;13.80;99.90
20977;DHT22;10647;51.016;3.720;2023-03-31T07:10:17;13.80;99.90
20977;DHT22;10647;51.016;3.720;2023-03-31T07:12:52;13.80;99.90
20977;DHT22;10647;51.016;3.720;2023-03-31T07:15:20;13.90;99.90
20977;DHT22;10647;51.016;3.720;2023-03-31T07:17:48;14.00;99.90
20977;DHT22;10647;51.016;3.720;2023-03-31T07:20:26;14.10;99.90
20977;DHT22;10647;51.016;3.720;2023-03-31T07:22:54;14.10;99.90
20977;DHT22;10647;51.016;3.720;2023-03-31T07:25:22;14.10;99.90
20977;DHT22;10647;51.016;3.720;2023-03-31T07:28:18;14.10;99.90
20977;DHT22;10647;51.016;3.720;2023-03-31T07:30:46;14.10;99.90
20977;DHT22;10647;51.016;3.720;2023-03-31T07:33:15;14.20;99.90
20977;DHT22;10647;51.016;3.720;2023-03-31T07:35:55;14.10;99.90
20977;DHT22;10647;51.016;3.720;2023-03-31T07:38:25;14.10;99.90
20977;DHT22;10647;51.016;3.720;2023-03-31T07:40:53;14.00;99.90
20977;DHT22;10647;51.016;3.720;2023-03-31T07:43:21;14.10;99.90
20977;DHT22;10647;51.016;3.720;2023-03-31T07:45:52;14.00;99.90
20977;DHT22;10647;51.016;3.720;2023-03-31T07:48:20;14.00;99.90
20977;DHT22;10647;51.016;3.720;2023-03-31T07:50:50;14.10;99.90
20977;DHT22;10647;51.016;3.720;2023-03-31T07:53:20;14.10;99.90
20977;DHT22;10647;51.016;3.720;2023-03-31T07:55:48;14.20;99.90
20977;DHT22;10647;51.016;3.720;2023-03-31T07:58:15;14.30;99.90
20977;DHT22;10647;51.016;3.720;2023-03-31T08:00:43;14.50;99.90
20977;DHT22;10647;51.016;3.720;2023-03-31T08:03:10;14.70;99.90
20977;DHT22;10647;51.016;3.720;2023-03-31T08:05:38;14.80;99.90
20977;DHT22;10647;51.016;3.720;2023-03-31T08:08:13;15.00;99.90
20977;DHT22;10647;51.016;3.720;2023-03-31T08:10:41;15.00;99.90
20977;DHT22;10647;51.016;3.720;2023-03-31T08:13:10;15.10;99.90
20977;DHT22;10647;51.016;3.720;2023-03-31T08:15:39;15.20;99.90
20977;DHT22;10647;51.016;3.720;2023-03-31T08:18:10;15.20;99.90
20977;DHT22;10647;51.016;3.720;2023-03-31T08:20:39;15.20;99.90
20977;DHT22;10647;51.016;3.720;2023-03-31T08:23:07;15.30;99.90
20977;DHT22;10647;51.016;3.720;2023-03-31T08:25:39;15.30;99.90
20977;DHT22;10647;51.016;3.720;2023-03-31T08:28:07;15.20;99.90
20977;DHT22;10647;51.016;3.720;2023-03-31T08:30:36;15.20;99.90
20977;DHT22;10647;51.016;3.720;2023-03-31T08:33:12;15.20;99.90
20977;DHT22;10647;51.016;3.720;2023-03-31T08:35:40;15.30;99.90
20977;DHT22;10647;51.016;3.720;2023-03-31T08:38:13;15.30;99.90
20977;DHT22;10647;51.016;3.720;2023-03-31T08:40:42;15.10;99.90
20977;DHT22;10647;51.016;3.720;2023-03-31T08:43:18;15.20;99.90
20977;DHT22;10647;51.016;3.720;2023-03-31T08:45:54;15.30;99.90
20977;DHT22;10647;51.016;3.720;2023-03-31T08:48:24;15.30;99.90
20977;DHT22;10647;51.016;3.720;2023-03-31T08:51:02;15.30;99.90
20977;DHT22;10647;51.016;3.720;2023-03-31T08:53:36;15.20;99.90
20977;DHT22;10647;51.016;3.720;2023-03-31T08:56:08;15.20;99.90
20977;DHT22;10647;51.016;3.720;2023-03-31T08:58:43;15.20;99.90
20977;DHT22;10647;51.016;3.720;2023-03-31T09:04:21;15.10;99.90
20977;DHT22;10647;51.016;3.720;2023-03-31T09:10:34;15.20;99.90
20977;DHT22;10647;51.016;3.720;2023-03-31T09:15:41;15.10;99.90
20977;DHT22;10647;51.016;3.720;2023-03-31T09:18:28;15.00;99.90
20977;DHT22;10647;51.016;3.720;2023-03-31T09:27:00;14.90;99.90
20977;DHT22;10647;51.016;3.720;2023-03-31T09:29:39;14.90;99.90
20977;DHT22;10647;51.016;3.720;2023-03-31T09:32:15;15.00;99.90
20977;DHT22;10647;51.016;3.720;2023-03-31T09:34:45;15.20;99.90
20977;DHT22;10647;51.016;3.720;2023-03-31T09:37:14;15.20;99.90
20977;DHT22;10647;51.016;3.720;2023-03-31T09:39:41;15.30;99.90
20977;DHT22;10647;51.016;3.720;2023-03-31T09:42:11;15.30;99.90
20977;DHT22;10647;51.016;3.720;2023-03-31T09:44:46;15.40;99.90
20977;DHT22;10647;51.016;3.720;2023-03-31T09:47:40;15.50;99.90
20977;DHT22;10647;51.016;3.720;2023-03-31T09:50:27;15.70;99.90
20977;DHT22;10647;51.016;3.720;2023-03-31T09:52:57;15.70;99.90
20977;DHT22;10647;51.016;3.720;2023-03-31T09:55:37;15.70;99.90
20977;DHT22;10647;51.016;3.720;2023-03-31T09:58:07;15.60;99.90
20977;DHT22;10647;51.016;3.720;2023-03-31T10:01:03;15.40;99.90
20977;DHT22;10647;51.016;3.720;2023-03-31T10:03:31;14.90;99.90
20977;DHT22;10647;51.016;3.720;2023-03-31T10:06:06;14.80;99.90
20977;DHT22;10647;51.016;3.720;2023-03-31T10:08:42;14.80;99.90
20977;DHT22;10647;51.016;3.720;2023-03-31T10:11:11;14.90;99.90
20977;DHT22;10647;51.016;3.720;2023-03-31T10:14:04;15.00;99.90
20977;DHT22;10647;51.016;3.720;2023-03-31T10:16:42;15.20;99.90
20977;DHT22;10647;51.016;3.720;2023-03-31T10:22:14;15.10;99.90
20977;DHT22;10647;51.016;3.720;2023-03-31T10:24:44;15.20;99.90
20977;DHT22;10647;51.016;3.720;2023-03-31T10:29:56;15.20;99.90
20977;DHT22;10647;51.016;3.720;2023-03-31T10:32:26;15.00;99.90
20977;DHT22;10647;51.016;3.720;2023-03-31T10:34:55;15.00;99.90
20977;DHT22;10647;51.016;3.720;2023-03-31T10:37:25;15.00;99.90
20977;DHT22;10647;51.016;3.720;2023-03-31T10:39:59;15.10;99.90
20977;DHT22;10647;51.016;3.720;2023-03-31T10:42:27;15.10;99.90
20977;DHT22;10647;51.016;3.720;2023-03-31T10:47:47;15.00;99.90
20977;DHT22;10647;51.016;3.720;2023-03-31T10:50:15;15.30;99.90
20977;DHT22;10647;51.016;3.720;2023-03-31T10:52:47;15.50;99.90
20977;DHT22;10647;51.016;3.720;2023-03-31T10:55:26;15.70;99.90
20977;DHT22;10647;51.016;3.720;2023-03-31T10:57:56;15.80;99.90
20977;DHT22;10647;51.016;3.720;2023-03-31T11:00:38;15.90;99.90
20977;DHT22;10647;51.016;3.720;2023-03-31T11:11:55;15.70;99.90
20977;DHT22;10647;51.016;3.720;2023-03-31T11:19:39;15.30;99.90
20977;DHT22;10647;51.016;3.720;2023-03-31T11:22:28;15.40;99.90
20977;DHT22;10647;51.016;3.720;2023-03-31T11:30:21;16.00;99.90
20977;DHT22;10647;51.016;3.720;2023-03-31T11:36:07;16.20;99.90
20977;DHT22;10647;51.016;3.720;2023-03-31T11:41:27;15.70;99.90
20977;DHT22;10647;51.016;3.720;2023-03-31T11:43:54;15.50;99.90
20977;DHT22;10647;51.016;3.720;2023-03-31T11:49:37;15.40;99.90
20977;DHT22;10647;51.016;3.720;2023-03-31T11:54:07;15.30;99.90
20977;DHT22;10647;51.016;3.720;2023-03-31T11:56:40;15.40;99.90
20977;DHT22;10647;51.016;3.720;2023-03-31T11:59:13;15.40;99.90
20977;DHT22;10647;51.016;3.720;2023-03-31T12:02:18;15.80;99.90
20977;DHT22;10647;51.016;3.720;2023-03-31T12:04:53;16.20;99.90
20977;DHT22;10647;51.016;3.720;2023-03-31T12:07:59;16.30;99.90
20977;DHT22;10647;51.016;3.720;2023-03-31T12:10:44;16.50;99.90
20977;DHT22;10647;51.016;3.720;2023-03-31T12:13:43;16.50;99.90
20977;DHT22;10647;51.016;3.720;2023-03-31T12:19:47;16.10;99.90
20977;DHT22;10647;51.016;3.720;2023-03-31T12:22:35;16.20;99.90
20977;DHT22;10647;51.016;3.720;2023-03-31T12:25:03;16.10;99.90
20977;DHT22;10647;51.016;3.720;2023-03-31T12:33:26;16.90;99.90
20977;DHT22;10647;51.016;3.720;2023-03-31T12:36:05;17.10;99.90
20977;DHT22;10647;51.016;3.720;2023-03-31T12:41:14;17.40;99.90
20977;DHT22;10647;51.016;3.720;2023-03-31T12:46:39;16.50;99.90
20977;DHT22;10647;51.016;3.720;2023-03-31T12:49:20;16.20;99.90
20977;DHT22;10647;51.016;3.720;2023-03-31T12:57:26;15.80;99.90
20977;DHT22;10647;51.016;3.720;2023-03-31T13:02:39;15.60;99.90
20977;DHT22;10647;51.016;3.720;2023-03-31T13:07:54;15.50;99.90
20977;DHT22;10647;51.016;3.720;2023-03-31T13:10:26;15.40;99.90
20977;DHT22;10647;51.016;3.720;2023-03-31T13:18:40;15.50;99.90
20977;DHT22;10647;51.016;3.720;2023-03-31T13:21:10;15.50;99.90
20977;DHT22;10647;51.016;3.720;2023-03-31T13:23:39;15.50;99.90
20977;DHT22;10647;51.016;3.720;2023-03-31T13:32:04;15.20;99.90
20977;DHT22;10647;51.016;3.720;2023-03-31T13:34:37;15.20;99.90
20977;DHT22;10647;51.016;3.720;2023-03-31T13:37:16;15.20;99.90
20977;DHT22;10647;51.016;3.720;2023-03-31T13:45:05;14.70;99.90
20977;DHT22;10647;51.016;3.720;2023-03-31T13:50:22;14.80;99.90
20977;DHT22;10647;51.016;3.720;2023-03-31T13:52:52;14.90;99.90
20977;DHT22;10647;51.016;3.720;2023-03-31T13:58:20;14.80;99.90
20977;DHT22;10647;51.016;3.720;2023-03-31T14:09:10;14.20;99.90
20977;DHT22;10647;51.016;3.720;2023-03-31T14:11:34;14.30;99.90
20977;DHT22;10647;51.016;3.720;2023-03-31T14:14:15;14.20;99.90
20977;DHT22;10647;51.016;3.720;2023-03-31T14:16:49;14.30;99.90
20977;DHT22;10647;51.016;3.720;2023-03-31T14:25:34;14.30;99.90
20977;DHT22;10647;51.016;3.720;2023-03-31T14:28:54;14.10;99.90
20977;DHT22;10647;51.016;3.720;2023-03-31T14:31:34;14.10;99.90
20977;DHT22;10647;51.016;3.720;2023-03-31T14:39:30;14.30;99.90
20977;DHT22;10647;51.016;3.720;2023-03-31T14:42:04;14.40;99.90
20977;DHT22;10647;51.016;3.720;2023-03-31T14:44:33;14.60;99.90
20977;DHT22;10647;51.016;3.720;2023-03-31T14:47:00;14.60;99.90
20977;DHT22;10647;51.016;3.720;2023-03-31T14:49:37;14.50;99.90
20977;DHT22;10647;51.016;3.720;2023-03-31T14:52:16;14.30;99.90
20977;DHT22;10647;51.016;3.720;2023-03-31T14:54:43;14.20;99.90
20977;DHT22;10647;51.016;3.720;2023-03-31T14:57:16;14.10;99.90
20977;DHT22;10647;51.016;3.720;2023-03-31T14:59:44;14.20;99.90
20977;DHT22;10647;51.016;3.720;2023-03-31T15:02:18;14.20;99.90
20977;DHT22;10647;51.016;3.720;2023-03-31T15:04:48;14.10;99.90
20977;DHT22;10647;51.016;3.720;2023-03-31T15:07:17;14.00;99.90
20977;DHT22;10647;51.016;3.720;2023-03-31T15:09:47;13.90;99.90
20977;DHT22;10647;51.016;3.720;2023-03-31T15:12:19;13.90;99.90
20977;DHT22;10647;51.016;3.720;2023-03-31T15:14:59;13.80;99.90
20977;DHT22;10647;51.016;3.720;2023-03-31T15:20:36;13.80;99.90
20977;DHT22;10647;51.016;3.720;2023-03-31T15:26:02;13.70;99.90
20977;DHT22;10647;51.016;3.720;2023-03-31T15:28:28;13.60;99.90
20977;DHT22;10647;51.016;3.720;2023-03-31T15:30:58;13.50;99.90
20977;DHT22;10647;51.016;3.720;2023-03-31T15:33:32;13.40;99.90
20977;DHT22;10647;51.016;3.720;2023-03-31T15:36:03;13.40;99.90
20977;DHT22;10647;51.016;3.720;2023-03-31T15:38:31;13.30;99.90
20977;DHT22;10647;51.016;3.720;2023-03-31T15:40:59;13.30;99.90
20977;DHT22;10647;51.016;3.720;2023-03-31T15:44:01;13.30;99.90
20977;DHT22;10647;51.016;3.720;2023-03-31T15:46:01;13.40;99.90
20977;DHT22;10647;51.016;3.720;2023-03-31T15:48:36;13.50;99.90
20977;DHT22;10647;51.016;3.720;2023-03-31T15:51:06;13.40;99.90
20977;DHT22;10647;51.016;3.720;2023-03-31T15:53:46;13.40;99.90
20977;DHT22;10647;51.016;3.720;2023-03-31T15:59:04;13.60;99.90
20977;DHT22;10647;51.016;3.720;2023-03-31T16:01:37;13.70;99.90
20977;DHT22;10647;51.016;3.720;2023-03-31T16:04:10;13.80;99.90
20977;DHT22;10647;51.016;3.720;2023-03-31T16:07:04;13.80;99.90
20977;DHT22;10647;51.016;3.720;2023-03-31T16:12:39;14.10;99.90
20977;DHT22;10647;51.016;3.720;2023-03-31T16:17:37;14.00;99.90
20977;DHT22;10647;51.016;3.720;2023-03-31T16:20:07;13.90;99.90
20977;DHT22;10647;51.016;3.720;2023-03-31T16:25:29;13.60;99.90
20977;DHT22;10647;51.016;3.720;2023-03-31T16:27:58;13.60;99.90
20977;DHT22;10647;51.016;3.720;2023-03-31T16:30:38;13.60;99.90
20977;DHT22;10647;51.016;3.720;2023-03-31T16:33:26;13.50;99.90
20977;DHT22;10647;51.016;3.720;2023-03-31T16:36:00;13.30;99.90
20977;DHT22;10647;51.016;3.720;2023-03-31T16:38:28;13.30;99.90
20977;DHT22;10647;51.016;3.720;2023-03-31T16:40:58;13.30;99.90
20977;DHT22;10647;51.016;3.720;2023-03-31T16:43:27;13.20;99.90
20977;DHT22;10647;51.016;3.720;2023-03-31T16:45:59;13.10;99.90
20977;DHT22;10647;51.016;3.720;2023-03-31T16:48:29;13.20;99.90
20977;DHT22;10647;51.016;3.720;2023-03-31T16:50:59;13.10;99.90
20977;DHT22;10647;51.016;3.720;2023-03-31T16:53:29;13.10;99.90
20977;DHT22;10647;51.016;3.720;2023-03-31T16:55:57;13.10;99.90
20977;DHT22;10647;51.016;3.720;2023-03-31T16:58:25;12.90;99.90
20977;DHT22;10647;51.016;3.720;2023-03-31T17:00:56;12.90;99.90
20977;DHT22;10647;51.016;3.720;2023-03-31T17:03:24;12.90;99.90
20977;DHT22;10647;51.016;3.720;2023-03-31T17:05:53;12.80;99.90
20977;DHT22;10647;51.016;3.720;2023-03-31T17:08:24;12.70;99.90
20977;DHT22;10647;51.016;3.720;2023-03-31T17:10:55;12.70;99.90
20977;DHT22;10647;51.016;3.720;2023-03-31T17:13:30;12.70;99.90
20977;DHT22;10647;51.016;3.720;2023-03-31T17:16:04;12.70;99.90
20977;DHT22;10647;51.016;3.720;2023-03-31T17:18:34;12.70;99.90
20977;DHT22;10647;51.016;3.720;2023-03-31T17:21:13;12.70;99.90
20977;DHT22;10647;51.016;3.720;2023-03-31T17:23:47;12.70;99.90
20977;DHT22;10647;51.016;3.720;2023-03-31T17:26:15;12.70;99.90
20977;DHT22;10647;51.016;3.720;2023-03-31T17:28:44;12.60;99.90
20977;DHT22;10647;51.016;3.720;2023-03-31T17:31:26;12.70;99.90
20977;DHT22;10647;51.016;3.720;2023-03-31T17:33:53;12.70;99.90
20977;DHT22;10647;51.016;3.720;2023-03-31T17:36:24;12.70;99.90
20977;DHT22;10647;51.016;3.720;2023-03-31T17:42:12;12.70;99.90
20977;DHT22;10647;51.016;3.720;2023-03-31T17:44:46;12.80;99.90
20977;DHT22;10647;51.016;3.720;2023-03-31T17:47:17;12.80;99.90
20977;DHT22;10647;51.016;3.720;2023-03-31T17:49:59;12.70;99.90
20977;DHT22;10647;51.016;3.720;2023-03-31T17:52:36;12.60;99.90
20977;DHT22;10647;51.016;3.720;2023-03-31T17:55:08;12.60;99.90
20977;DHT22;10647;51.016;3.720;2023-03-31T17:57:39;12.70;99.90
20977;DHT22;10647;51.016;3.720;2023-03-31T18:00:09;12.80;99.90
20977;DHT22;10647;51.016;3.720;2023-03-31T18:02:44;12.70;99.90
20977;DHT22;10647;51.016;3.720;2023-03-31T18:05:29;12.80;99.90
20977;DHT22;10647;51.016;3.720;2023-03-31T18:08:31;12.70;99.90
20977;DHT22;10647;51.016;3.720;2023-03-31T18:11:02;12.60;99.90
20977;DHT22;10647;51.016;3.720;2023-03-31T18:13:34;12.50;99.90
20977;DHT22;10647;51.016;3.720;2023-03-31T18:16:05;12.40;99.90
20977;DHT22;10647;51.016;3.720;2023-03-31T18:18:43;12.40;99.90
20977;DHT22;10647;51.016;3.720;2023-03-31T18:21:13;12.30;99.90
20977;DHT22;10647;51.016;3.720;2023-03-31T18:23:48;12.40;99.90
20977;DHT22;10647;51.016;3.720;2023-03-31T18:26:21;12.30;99.90
20977;DHT22;10647;51.016;3.720;2023-03-31T18:28:49;12.20;99.90
20977;DHT22;10647;51.016;3.720;2023-03-31T18:31:18;12.20;99.90
20977;DHT22;10647;51.016;3.720;2023-03-31T18:33:53;12.30;99.90
20977;DHT22;10647;51.016;3.720;2023-03-31T18:39:36;12.20;99.90
20977;DHT22;10647;51.016;3.720;2023-03-31T18:42:06;12.20;99.90
20977;DHT22;10647;51.016;3.720;2023-03-31T18:44:38;12.20;99.90
20977;DHT22;10647;51.016;3.720;2023-03-31T18:47:05;12.20;99.90
20977;DHT22;10647;51.016;3.720;2023-03-31T18:49:37;12.20;99.90
20977;DHT22;10647;51.016;3.720;2023-03-31T18:52:08;12.10;99.90
20977;DHT22;10647;51.016;3.720;2023-03-31T18:54:55;12.10;99.90
20977;DHT22;10647;51.016;3.720;2023-03-31T18:57:23;12.10;99.90
20977;DHT22;10647;51.016;3.720;2023-03-31T18:59:51;12.00;99.90
20977;DHT22;10647;51.016;3.720;2023-03-31T19:02:19;12.00;99.90
20977;DHT22;10647;51.016;3.720;2023-03-31T19:04:47;12.00;99.90
20977;DHT22;10647;51.016;3.720;2023-03-31T19:07:15;12.00;99.90
20977;DHT22;10647;51.016;3.720;2023-03-31T19:09:43;12.00;99.90
20977;DHT22;10647;51.016;3.720;2023-03-31T19:12:10;12.00;99.90
20977;DHT22;10647;51.016;3.720;2023-03-31T19:14:38;12.00;99.90
20977;DHT22;10647;51.016;3.720;2023-03-31T19:17:06;11.90;99.90
20977;DHT22;10647;51.016;3.720;2023-03-31T19:19:34;11.90;99.90
20977;DHT22;10647;51.016;3.720;2023-03-31T19:22:02;11.90;99.90
20977;DHT22;10647;51.016;3.720;2023-03-31T19:24:29;11.90;99.90
20977;DHT22;10647;51.016;3.720;2023-03-31T19:26:57;11.90;99.90
20977;DHT22;10647;51.016;3.720;2023-03-31T19:29:25;11.90;99.90
20977;DHT22;10647;51.016;3.720;2023-03-31T19:31:53;11.90;99.90
20977;DHT22;10647;51.016;3.720;2023-03-31T19:34:21;11.90;99.90